createdAt,value
2017-08-24T00:02:08.570Z,12.27
2017-08-24T00:04:36.097Z,12.93
2017-08-24T00:07:03.621Z,11.00
2017-08-24T00:09:31.128Z,11.43
2017-08-24T00:11:58.651Z,13.00
2017-08-24T00:14:26.191Z,14.80
2017-08-24T00:16:53.722Z,12.90
2017-08-24T00:19:21.223Z,13.47
2017-08-24T00:21:48.738Z,12.77
2017-08-24T00:24:16.245Z,14.07
2017-08-24T00:26:43.770Z,11.67
2017-08-24T00:29:11.281Z,11.13
2017-08-24T00:31:38.798Z,12.97
2017-08-24T00:34:06.303Z,13.30
2017-08-24T00:36:33.831Z,12.57
2017-08-24T00:39:01.339Z,17.43
2017-08-24T00:41:28.859Z,14.50
2017-08-24T00:43:56.359Z,11.70
2017-08-24T00:46:23.891Z,10.93
2017-08-24T00:48:51.426Z,13.20
2017-08-24T00:51:18.926Z,13.10
2017-08-24T00:53:46.439Z,11.77
2017-08-24T00:56:13.938Z,12.17
2017-08-24T00:58:41.461Z,16.17
2017-08-24T01:01:08.962Z,13.70
2017-08-24T01:03:36.479Z,9.90
2017-08-24T01:06:03.979Z,10.70
2017-08-24T01:08:31.495Z,11.03
2017-08-24T01:10:59.020Z,10.70
2017-08-24T01:13:26.552Z,12.33
2017-08-24T01:15:54.055Z,12.70
2017-08-24T01:18:21.567Z,9.70
2017-08-24T01:20:49.074Z,10.73
2017-08-24T01:23:16.591Z,14.43
2017-08-24T01:25:44.094Z,17.00
2017-08-24T01:28:11.610Z,11.30
2017-08-24T01:30:39.115Z,11.57
2017-08-24T01:33:06.640Z,11.20
2017-08-24T01:35:34.135Z,9.87
2017-08-24T01:38:01.646Z,11.90
2017-08-24T01:40:29.155Z,11.40
2017-08-24T01:42:56.674Z,10.17
2017-08-24T01:45:24.186Z,12.10
2017-08-24T01:47:51.719Z,12.63
2017-08-24T01:50:19.218Z,13.40
2017-08-24T01:52:46.769Z,16.97
2017-08-24T01:55:14.317Z,9.13
2017-08-24T01:57:41.859Z,10.00
2017-08-24T02:00:09.407Z,11.27
2017-08-24T02:02:36.927Z,11.83
2017-08-24T02:05:04.451Z,13.60
2017-08-24T02:07:31.986Z,11.77
2017-08-24T02:09:59.524Z,10.20
2017-08-24T02:12:27.178Z,10.50
2017-08-24T02:14:54.731Z,10.87
2017-08-24T02:17:22.230Z,10.80
2017-08-24T02:19:49.746Z,8.90
2017-08-24T02:22:17.242Z,9.80
2017-08-24T02:24:44.751Z,8.10
2017-08-24T02:27:12.260Z,10.10
2017-08-24T02:29:39.782Z,15.60
2017-08-24T02:32:07.282Z,9.97
2017-08-24T02:34:35.648Z,10.93
2017-08-24T02:37:03.151Z,7.70
2017-08-24T02:39:30.666Z,10.93
2017-08-24T02:41:58.164Z,9.10
2017-08-24T02:44:25.679Z,10.20
2017-08-24T02:46:53.174Z,8.93
2017-08-24T02:49:20.695Z,9.03
2017-08-24T02:51:48.199Z,10.10
2017-08-24T02:54:15.699Z,10.93
2017-08-24T02:56:43.212Z,9.30
2017-08-24T02:59:10.720Z,7.90
2017-08-24T03:01:38.235Z,8.90
2017-08-24T03:04:05.734Z,9.93
2017-08-24T03:06:33.255Z,11.00
2017-08-24T03:09:00.754Z,7.10
2017-08-24T03:11:28.271Z,7.23
2017-08-24T03:13:55.774Z,11.30
2017-08-24T03:16:23.294Z,14.10
2017-08-24T03:18:50.799Z,10.50
2017-08-24T03:21:18.314Z,9.17
2017-08-24T03:23:45.873Z,9.30
2017-08-24T03:26:13.416Z,13.97
2017-08-24T03:28:40.930Z,10.63
2017-08-24T03:31:08.459Z,9.90
2017-08-24T03:33:35.955Z,8.73
2017-08-24T03:36:03.471Z,9.00
2017-08-24T03:38:30.974Z,8.90
2017-08-24T03:40:58.494Z,11.43
2017-08-24T03:43:25.991Z,9.10
2017-08-24T03:45:54.283Z,7.37
2017-08-24T03:48:21.791Z,10.00
2017-08-24T03:50:49.302Z,8.20
2017-08-24T03:53:17.571Z,12.03
2017-08-24T03:55:45.086Z,10.03
2017-08-24T03:58:12.594Z,8.70
2017-08-24T04:00:40.091Z,8.77
2017-08-24T04:03:07.607Z,6.70
2017-08-24T04:05:35.109Z,10.10
2017-08-24T04:08:02.635Z,13.50
2017-08-24T04:10:30.142Z,10.40
2017-08-24T04:12:57.660Z,11.27
2017-08-24T04:15:25.162Z,9.73
2017-08-24T04:17:52.687Z,10.80
2017-08-24T04:20:20.187Z,10.23
2017-08-24T04:22:47.704Z,8.67
2017-08-24T04:25:15.199Z,9.40
2017-08-24T04:27:42.711Z,8.83
2017-08-24T04:30:10.219Z,10.43
2017-08-24T04:32:38.499Z,8.73
2017-08-24T04:35:05.994Z,10.07
2017-08-24T04:37:33.516Z,6.50
2017-08-24T04:40:01.011Z,9.17
2017-08-24T04:42:28.544Z,11.10
2017-08-24T04:44:56.047Z,10.13
2017-08-24T04:47:23.559Z,9.70
2017-08-24T04:49:51.058Z,7.97
2017-08-24T04:52:18.584Z,7.00
2017-08-24T04:54:46.100Z,9.60
2017-08-24T04:57:13.645Z,10.83
2017-08-24T04:59:41.143Z,10.30
2017-08-24T05:02:08.639Z,9.10
2017-08-24T05:04:36.150Z,7.20
2017-08-24T05:07:03.650Z,7.63
2017-08-24T05:09:31.349Z,7.00
2017-08-24T05:11:58.852Z,10.63
2017-08-24T05:14:27.135Z,9.80
2017-08-24T05:16:55.407Z,13.37
2017-08-24T05:19:23.206Z,10.97
2017-08-24T05:21:50.700Z,9.83
2017-08-24T05:24:18.210Z,8.50
2017-08-24T05:26:45.715Z,10.97
2017-08-24T05:29:13.239Z,9.30
2017-08-24T05:31:40.740Z,10.90
2017-08-24T05:34:08.254Z,10.90
2017-08-24T05:36:35.755Z,10.77
2017-08-24T05:39:03.284Z,14.17
2017-08-24T05:41:30.787Z,10.07
2017-08-24T05:43:58.303Z,8.77
2017-08-24T05:46:25.803Z,9.43
2017-08-24T05:48:53.319Z,8.57
2017-08-24T05:51:20.835Z,10.13
2017-08-24T05:53:48.391Z,9.67
2017-08-24T05:56:16.702Z,8.30
2017-08-24T05:58:44.243Z,13.97
2017-08-24T06:01:11.792Z,10.87
2017-08-24T06:03:39.335Z,11.80
2017-08-24T06:06:06.865Z,8.30
2017-08-24T06:08:34.403Z,12.40
2017-08-24T06:11:02.095Z,12.40
2017-08-24T06:13:30.382Z,10.00
2017-08-24T06:15:57.913Z,12.83
2017-08-24T06:18:25.415Z,9.57
2017-08-24T06:20:53.695Z,9.23
2017-08-24T06:23:21.314Z,12.27
2017-08-24T06:25:48.843Z,11.57
2017-08-24T06:28:16.371Z,13.40
2017-08-24T06:30:44.668Z,12.33
2017-08-24T06:33:12.219Z,7.67
2017-08-24T06:35:39.731Z,8.40
2017-08-24T06:38:07.236Z,10.17
2017-08-24T06:40:35.056Z,8.83
2017-08-24T06:43:02.587Z,9.87
2017-08-24T06:45:30.187Z,12.63
2017-08-24T06:47:57.689Z,9.00
2017-08-24T06:50:25.211Z,11.83
2017-08-24T06:52:53.475Z,13.13
2017-08-24T06:55:20.991Z,9.67
2017-08-24T06:57:48.491Z,8.07
2017-08-24T07:00:16.007Z,9.07
2017-08-24T07:02:43.511Z,8.17
2017-08-24T07:05:11.006Z,8.10
2017-08-24T07:07:38.519Z,9.53
2017-08-24T07:10:06.024Z,7.67
2017-08-24T07:12:33.553Z,7.30
2017-08-24T07:15:01.050Z,11.17
2017-08-24T07:17:28.559Z,7.33
2017-08-24T07:19:56.071Z,10.53
2017-08-24T07:22:23.587Z,5.50
2017-08-24T07:24:51.094Z,6.63
2017-08-24T07:27:18.608Z,10.23
2017-08-24T07:29:46.112Z,6.83
2017-08-24T07:32:13.628Z,5.80
2017-08-24T07:34:41.127Z,5.73
2017-08-24T07:37:08.642Z,9.40
2017-08-24T07:39:36.147Z,6.00
2017-08-24T07:42:03.663Z,6.13
2017-08-24T07:44:31.166Z,5.73
2017-08-24T07:46:58.687Z,5.27
2017-08-24T07:49:26.187Z,4.97
2017-08-24T07:51:53.706Z,5.43
2017-08-24T07:54:21.206Z,6.63
2017-08-24T07:56:48.728Z,6.30
2017-08-24T07:59:16.229Z,5.57
2017-08-24T08:01:43.748Z,8.27
2017-08-24T08:04:11.246Z,6.70
2017-08-24T08:06:38.747Z,7.10
2017-08-24T08:09:06.265Z,5.47
2017-08-24T08:11:33.763Z,8.57
2017-08-24T08:14:01.283Z,5.70
2017-08-24T08:16:28.798Z,6.60
2017-08-24T08:18:56.323Z,8.93
2017-08-24T08:21:23.818Z,7.17
2017-08-24T08:23:51.335Z,6.80
2017-08-24T08:26:19.605Z,6.93
2017-08-24T08:28:47.154Z,9.17
2017-08-24T08:31:14.896Z,6.93
2017-08-24T08:33:42.414Z,9.00
2017-08-24T08:36:09.958Z,8.50
2017-08-24T08:38:37.506Z,19.30
2017-08-24T08:41:05.007Z,9.80
2017-08-24T08:43:32.523Z,12.57
2017-08-24T08:46:00.026Z,8.00
2017-08-24T08:48:30.243Z,8.10
2017-08-24T08:51:01.079Z,8.57
2017-08-24T08:53:31.902Z,7.00
2017-08-24T08:56:04.300Z,7.40
2017-08-24T08:58:33.372Z,8.70
2017-08-24T09:01:01.357Z,8.37
2017-08-24T09:03:28.883Z,6.63
2017-08-24T09:05:56.407Z,8.50
2017-08-24T09:08:23.931Z,8.73
2017-08-24T09:10:51.460Z,7.87
2017-08-24T09:13:18.995Z,12.20
2017-08-24T09:15:46.513Z,11.10
2017-08-24T09:18:14.031Z,10.87
2017-08-24T09:20:41.567Z,12.03
2017-08-24T09:23:09.081Z,8.50
2017-08-24T09:25:36.615Z,10.00
2017-08-24T09:28:04.200Z,12.03
2017-08-24T09:30:31.723Z,14.50
2017-08-24T09:32:59.990Z,8.90
2017-08-24T09:35:27.512Z,11.37
2017-08-24T09:37:55.021Z,9.73
2017-08-24T09:40:22.546Z,12.20
2017-08-24T09:42:50.047Z,8.27
2017-08-24T09:45:17.568Z,9.67
2017-08-24T09:47:45.069Z,9.07
2017-08-24T09:50:12.602Z,16.23
2017-08-24T09:52:40.111Z,10.13
2017-08-24T09:55:07.627Z,15.03
2017-08-24T09:57:35.132Z,8.20
2017-08-24T10:00:02.646Z,9.73
2017-08-24T10:02:30.156Z,11.50
2017-08-24T10:04:57.679Z,11.90
2017-08-24T10:07:25.187Z,12.30
2017-08-24T10:09:52.707Z,7.70
2017-08-24T10:12:20.220Z,11.50
2017-08-24T10:14:47.761Z,10.13
2017-08-24T10:17:15.266Z,10.80
2017-08-24T10:19:42.775Z,10.83
2017-08-24T10:22:10.295Z,10.63
2017-08-24T10:24:37.795Z,8.93
2017-08-24T10:27:05.333Z,12.30
2017-08-24T10:29:32.947Z,13.00
2017-08-24T10:32:00.414Z,10.57
2017-08-24T10:34:27.951Z,12.80
2017-08-24T10:36:55.491Z,10.60
2017-08-24T10:39:23.021Z,9.10
2017-08-24T10:41:50.551Z,12.50
2017-08-24T10:44:18.071Z,16.23
2017-08-24T10:46:45.609Z,12.43
2017-08-24T10:49:13.124Z,9.40
2017-08-24T10:51:40.651Z,16.33
2017-08-24T10:54:08.159Z,9.53
2017-08-24T10:56:35.695Z,12.47
2017-08-24T10:59:03.211Z,10.47
2017-08-24T11:01:30.731Z,12.77
2017-08-24T11:03:58.234Z,9.07
2017-08-24T11:06:25.750Z,8.00
2017-08-24T11:08:53.252Z,12.43
2017-08-24T11:11:20.799Z,9.17
2017-08-24T11:13:48.291Z,8.20
2017-08-24T11:16:15.841Z,17.13
2017-08-24T11:18:43.344Z,8.90
2017-08-24T11:21:10.851Z,10.63
2017-08-24T11:23:38.377Z,11.80
2017-08-24T11:26:05.882Z,11.63
2017-08-24T11:28:33.408Z,11.70
2017-08-24T11:31:00.916Z,10.50
2017-08-24T11:33:28.439Z,13.33
2017-08-24T11:35:55.943Z,9.77
2017-08-24T11:38:23.471Z,11.93
2017-08-24T11:40:50.997Z,11.53
2017-08-24T11:43:18.516Z,10.73
2017-08-24T11:45:46.026Z,11.20
2017-08-24T11:48:13.543Z,10.30
2017-08-24T11:50:41.047Z,11.30
2017-08-24T11:53:08.562Z,8.77
2017-08-24T11:55:36.066Z,9.33
2017-08-24T11:58:03.595Z,13.37
2017-08-24T12:00:31.095Z,11.13
2017-08-24T12:02:58.628Z,10.93
2017-08-24T12:05:26.152Z,8.07
2017-08-24T12:07:53.709Z,12.77
2017-08-24T12:10:21.243Z,13.87
2017-08-24T12:12:48.799Z,9.70
2017-08-24T12:15:16.324Z,12.03
2017-08-24T12:17:43.863Z,7.43
2017-08-24T12:20:11.375Z,7.70
2017-08-24T12:22:38.885Z,10.50
2017-08-24T12:25:06.462Z,6.83
2017-08-24T12:27:34.029Z,10.90
2017-08-24T12:30:01.561Z,7.53
2017-08-24T12:32:29.067Z,7.63
2017-08-24T12:34:57.365Z,8.70
2017-08-24T12:37:25.656Z,8.67
2017-08-24T12:39:53.188Z,6.47
2017-08-24T12:42:20.695Z,7.90
2017-08-24T12:44:48.221Z,7.47
2017-08-24T12:47:15.727Z,10.50
2017-08-24T12:49:43.247Z,8.87
2017-08-24T12:52:10.751Z,5.17
2017-08-24T12:54:38.270Z,8.30
2017-08-24T12:57:05.779Z,7.40
2017-08-24T12:59:33.299Z,9.90
2017-08-24T13:02:00.798Z,5.87
2017-08-24T13:04:28.315Z,8.40
2017-08-24T13:06:55.818Z,6.67
2017-08-24T13:09:23.342Z,7.00
2017-08-24T13:11:50.843Z,6.40
2017-08-24T13:14:18.360Z,8.50
2017-08-24T13:16:45.859Z,9.00
2017-08-24T13:19:13.391Z,8.37
2017-08-24T13:21:40.886Z,7.37
2017-08-24T13:24:08.391Z,7.80
2017-08-24T13:26:35.912Z,6.17
2017-08-24T13:29:03.415Z,9.83
2017-08-24T13:31:30.931Z,7.10
2017-08-24T13:33:58.435Z,7.13
2017-08-24T13:36:25.951Z,6.63
2017-08-24T13:38:53.447Z,9.20
2017-08-24T13:41:21.027Z,10.20
2017-08-24T13:43:48.582Z,10.33
2017-08-24T13:46:16.166Z,8.93
2017-08-24T13:48:43.699Z,12.50
2017-08-24T13:51:11.228Z,9.13
2017-08-24T13:53:38.775Z,13.47
2017-08-24T13:56:06.295Z,7.87
2017-08-24T13:58:33.806Z,12.27
2017-08-24T14:01:01.326Z,8.50
2017-08-24T14:03:29.592Z,5.87
2017-08-24T14:05:57.374Z,7.60
2017-08-24T14:08:24.871Z,11.93
2017-08-24T14:10:52.387Z,6.63
2017-08-24T14:13:19.883Z,8.83
2017-08-24T14:15:47.400Z,8.00
2017-08-24T14:18:14.924Z,10.97
2017-08-24T14:20:42.542Z,13.30
2017-08-24T14:23:10.048Z,10.70
2017-08-24T14:25:37.546Z,9.80
2017-08-24T14:28:05.835Z,7.57
2017-08-24T14:30:33.372Z,7.50
2017-08-24T14:33:00.887Z,8.43
2017-08-24T14:35:28.391Z,8.60
2017-08-24T14:37:55.923Z,7.67
2017-08-24T14:40:23.420Z,8.93
2017-08-24T14:42:51.031Z,10.93
2017-08-24T14:45:18.524Z,8.37
2017-08-24T14:47:46.036Z,6.90
2017-08-24T14:50:13.543Z,8.37
2017-08-24T14:52:41.056Z,8.97
2017-08-24T14:57:42.555Z,9.20
2017-08-24T15:00:10.055Z,8.27
2017-08-24T15:02:37.570Z,7.37
2017-08-24T15:05:05.076Z,7.50
2017-08-24T15:07:32.593Z,7.60
2017-08-24T15:10:00.095Z,7.10
2017-08-24T15:12:28.418Z,10.60
2017-08-24T15:14:56.687Z,8.47
2017-08-24T15:17:24.220Z,8.30
2017-08-24T15:19:51.726Z,7.57
2017-08-24T15:22:20.011Z,10.63
2017-08-24T15:24:47.515Z,10.93
2017-08-24T15:27:15.038Z,8.10
2017-08-24T15:29:42.543Z,7.07
2017-08-24T15:32:10.814Z,8.70
2017-08-24T15:34:38.335Z,10.80
2017-08-24T15:37:05.838Z,7.97
2017-08-24T15:39:33.356Z,10.80
2017-08-24T15:42:00.854Z,9.87
2017-08-24T15:44:28.370Z,8.57
2017-08-24T15:46:55.871Z,8.30
2017-08-24T15:49:24.163Z,14.97
2017-08-24T15:51:51.664Z,10.83
2017-08-24T15:54:19.187Z,6.53
2017-08-24T15:56:46.687Z,10.93
2017-08-24T15:59:14.208Z,8.27
2017-08-24T16:01:41.702Z,6.67
2017-08-24T16:04:09.215Z,8.60
2017-08-24T16:06:36.710Z,7.60
2017-08-24T16:09:04.226Z,7.80
2017-08-24T16:11:31.730Z,7.77
2017-08-24T16:13:59.242Z,7.80
2017-08-24T16:16:26.744Z,7.60
2017-08-24T16:18:54.258Z,11.70
2017-08-24T16:21:21.760Z,8.27
2017-08-24T16:23:49.274Z,8.50
2017-08-24T16:26:16.780Z,6.20
2017-08-24T16:28:44.315Z,7.30
2017-08-24T16:31:11.812Z,6.93
2017-08-24T16:33:39.315Z,6.60
2017-08-24T16:36:06.826Z,6.50
2017-08-24T16:38:34.319Z,8.13
2017-08-24T16:41:01.839Z,12.73
2017-08-24T16:43:29.400Z,9.53
2017-08-24T16:45:56.944Z,11.00
2017-08-24T16:48:24.447Z,8.70
2017-08-24T16:50:52.750Z,11.43
2017-08-24T16:53:20.266Z,8.67
2017-08-24T16:55:47.791Z,8.63
2017-08-24T16:58:15.290Z,13.80
2017-08-24T17:00:42.814Z,9.27
2017-08-24T17:03:10.315Z,10.43
2017-08-24T17:05:38.695Z,9.90
2017-08-24T17:08:06.982Z,9.80
2017-08-24T17:10:34.502Z,11.43
2017-08-24T17:13:02.013Z,10.37
2017-08-24T17:15:29.535Z,10.57
2017-08-24T17:17:57.039Z,9.40
2017-08-24T17:20:24.555Z,11.70
2017-08-24T17:22:52.822Z,10.53
2017-08-24T17:25:20.339Z,12.50
2017-08-24T17:27:47.841Z,8.80
2017-08-24T17:30:15.370Z,14.63
2017-08-24T17:32:42.862Z,8.53
2017-08-24T17:35:10.362Z,17.03
2017-08-24T17:37:37.879Z,12.70
2017-08-24T17:40:05.382Z,8.00
2017-08-24T17:42:32.898Z,10.77
2017-08-24T17:45:00.405Z,10.67
2017-08-24T17:47:27.941Z,12.40
2017-08-24T17:49:55.448Z,12.77
2017-08-24T17:52:22.960Z,8.13
2017-08-24T17:54:50.458Z,10.63
2017-08-24T17:57:17.983Z,15.13
2017-08-24T17:59:45.479Z,9.57
2017-08-24T18:02:13.009Z,12.60
2017-08-24T18:04:40.511Z,16.53
2017-08-24T18:07:08.795Z,12.50
2017-08-24T18:09:36.294Z,11.00
2017-08-24T18:12:03.811Z,10.37
2017-08-24T18:14:31.330Z,13.43
2017-08-24T18:16:58.981Z,12.43
2017-08-24T18:19:26.567Z,11.20
2017-08-24T18:21:54.113Z,20.07
2017-08-24T18:24:21.628Z,18.33
2017-08-24T18:26:49.171Z,11.30
2017-08-24T18:29:16.675Z,9.60
2017-08-24T18:31:44.212Z,7.80
2017-08-24T18:34:11.712Z,8.70
2017-08-24T18:36:39.687Z,8.53
2017-08-24T18:39:07.199Z,6.43
2017-08-24T18:41:34.698Z,8.30
2017-08-24T18:44:02.212Z,10.63
2017-08-24T18:46:29.723Z,4.33
2017-08-24T18:48:57.272Z,15.97
2017-08-24T18:51:24.760Z,8.37
2017-08-24T18:53:52.282Z,12.50
2017-08-24T18:56:19.782Z,8.10
2017-08-24T18:58:47.295Z,8.43
2017-08-24T19:01:14.792Z,6.37
2017-08-24T19:03:42.310Z,7.10
2017-08-24T19:06:09.807Z,6.87
2017-08-24T19:08:37.327Z,10.47
2017-08-24T19:11:04.832Z,12.83
2017-08-24T19:13:32.359Z,13.67
2017-08-24T19:15:59.854Z,9.67
2017-08-24T19:18:27.367Z,7.40
2017-08-24T19:20:54.867Z,10.40
2017-08-24T19:23:22.391Z,8.20
2017-08-24T19:25:49.894Z,7.23
2017-08-24T19:28:17.406Z,5.67
2017-08-24T19:30:44.922Z,8.10
2017-08-24T19:33:12.470Z,8.50
2017-08-24T19:35:39.986Z,5.13
2017-08-24T19:38:07.531Z,6.77
2017-08-24T19:40:35.944Z,4.70
2017-08-24T19:43:03.439Z,5.30
2017-08-24T19:45:30.955Z,5.00
2017-08-24T19:47:58.463Z,5.17
2017-08-24T19:50:25.978Z,8.93
2017-08-24T19:52:54.248Z,5.47
2017-08-24T19:55:21.773Z,5.80
2017-08-24T19:57:49.267Z,6.67
2017-08-24T20:00:16.783Z,4.07
2017-08-24T20:02:44.275Z,4.30
2017-08-24T20:05:11.805Z,6.13
2017-08-24T20:07:39.312Z,6.07
2017-08-24T20:10:07.652Z,4.77
2017-08-24T20:12:35.155Z,5.57
2017-08-24T20:15:02.710Z,6.70
2017-08-24T20:17:30.209Z,7.00
2017-08-24T20:19:57.724Z,4.77
2017-08-24T20:22:25.997Z,5.47
2017-08-24T20:24:53.544Z,3.00
2017-08-24T20:27:21.850Z,5.13
2017-08-24T20:29:49.435Z,4.10
2017-08-24T20:32:16.967Z,4.47
2017-08-24T20:34:44.495Z,5.20
2017-08-24T20:37:12.783Z,4.70
2017-08-24T20:39:40.284Z,4.17
2017-08-24T20:42:07.799Z,3.90
2017-08-24T20:44:35.295Z,6.20
2017-08-24T20:47:02.815Z,3.73
2017-08-24T20:49:30.547Z,6.53
2017-08-24T20:51:58.064Z,4.23
2017-08-24T20:54:25.562Z,5.10
2017-08-24T20:56:53.075Z,3.60
2017-08-24T20:59:20.571Z,4.90
2017-08-24T21:01:48.123Z,3.67
2017-08-24T21:04:15.649Z,5.03
2017-08-24T21:06:43.167Z,4.67
2017-08-24T21:09:10.668Z,5.30
2017-08-24T21:11:38.183Z,3.73
2017-08-24T21:14:05.682Z,5.07
2017-08-24T21:16:33.200Z,5.90
2017-08-24T21:19:00.707Z,6.13
2017-08-24T21:21:28.218Z,4.53
2017-08-24T21:23:55.722Z,7.20
2017-08-24T21:26:23.234Z,5.43
2017-08-24T21:28:50.735Z,4.10
2017-08-24T21:31:18.264Z,4.60
2017-08-24T21:33:45.763Z,4.27
2017-08-24T21:36:13.259Z,6.13
2017-08-24T21:38:40.775Z,4.93
2017-08-24T21:41:08.267Z,4.27
2017-08-24T21:43:35.786Z,3.40
2017-08-24T21:46:03.287Z,4.03
2017-08-24T21:48:30.796Z,5.40
2017-08-24T21:50:58.301Z,4.30
2017-08-24T21:53:25.815Z,4.63
2017-08-24T21:55:53.330Z,4.27
2017-08-24T21:58:21.615Z,4.37
2017-08-24T22:00:49.879Z,5.90
2017-08-24T22:03:17.395Z,3.50
2017-08-24T22:05:44.890Z,3.83
2017-08-24T22:08:12.408Z,6.27
2017-08-24T22:10:39.911Z,3.70
2017-08-24T22:13:07.422Z,2.83
2017-08-24T22:15:34.914Z,4.07
2017-08-24T22:18:02.427Z,3.93
2017-08-24T22:20:29.936Z,3.40
2017-08-24T22:22:57.448Z,7.10
2017-08-24T22:25:24.951Z,4.00
2017-08-24T22:27:52.465Z,6.13
2017-08-24T22:30:19.963Z,7.20
2017-08-24T22:32:47.487Z,3.60
2017-08-24T22:35:14.985Z,2.83
2017-08-24T22:37:42.484Z,3.57
2017-08-24T22:40:10.004Z,4.60
2017-08-24T22:42:37.503Z,8.13
2017-08-24T22:45:05.023Z,3.90
2017-08-24T22:47:32.522Z,3.67
2017-08-24T22:50:00.051Z,3.10
2017-08-24T22:52:27.559Z,5.00
2017-08-24T22:55:00.827Z,6.43
2017-08-24T23:00:37.689Z,3.50
2017-08-24T23:03:10.843Z,3.60
2017-08-24T23:05:38.359Z,7.00
2017-08-24T23:08:05.856Z,4.20
2017-08-24T23:10:33.371Z,5.70
2017-08-24T23:13:01.639Z,5.83
2017-08-24T23:15:29.155Z,5.83
2017-08-24T23:17:56.646Z,3.83
2017-08-24T23:20:24.162Z,4.63
2017-08-24T23:22:51.670Z,5.13
2017-08-24T23:25:19.187Z,5.27
2017-08-24T23:27:46.683Z,4.50
2017-08-24T23:30:14.199Z,6.57
2017-08-24T23:32:41.703Z,6.47
2017-08-24T23:35:09.214Z,6.67
2017-08-24T23:37:36.706Z,4.77
2017-08-24T23:40:04.219Z,6.03
2017-08-24T23:42:31.715Z,5.50
2017-08-24T23:44:59.239Z,5.80
2017-08-24T23:47:26.734Z,9.23
2017-08-24T23:49:54.231Z,6.13
2017-08-24T23:52:21.752Z,6.27
2017-08-24T23:54:49.251Z,5.70
2017-08-24T23:57:16.762Z,4.70
2017-08-24T23:59:44.267Z,3.80
